Dallas Center, Iowa
Current Conditions -  °F | °C
As of 6:35 PM on Sunday 21 Dec 2014 (Local Time) from KPRO Reporting Station
Overcast Overcast  
Wind Chill: 32°   Ceiling: 900
Heat Index: 40°   Visibility: 7mi
Dew Point: 39°   Wind: 14mph
Humidity: 97%   Direction: 160°SSE
Pressure: 29.76"   Gusts: NA
Location:  41.68°N, 93.96°W
Report Text: KPRO 220035Z AUTO 16012KT 7SM OVC009 05/04 A2976 RMK AO2 T00450040
Loading
Personal Weather Stations






























Interactive Weather Map New forecast layout! Learn more

10-Day Weather Forecast

Advertisements
Track Severe Weather on mobile